createdAt,value
2023-01-30T00:00:54.940Z,97284.91
2023-01-30T00:03:22.323Z,97287.97
2023-01-30T00:05:48.937Z,97278.06
2023-01-30T00:08:16.040Z,97287.69
2023-01-30T00:10:42.784Z,97281.63
2023-01-30T00:13:09.741Z,97276.28
2023-01-30T00:15:36.535Z,97273.78
2023-01-30T00:18:03.452Z,97276.34
2023-01-30T00:20:30.304Z,97271.38
2023-01-30T00:23:00.992Z,97271.34
2023-01-30T00:25:28.555Z,97271.78
2023-01-30T00:27:55.208Z,97268.13
2023-01-30T00:30:21.667Z,97258.78
2023-01-30T00:32:48.220Z,97262.25
2023-01-30T00:35:14.653Z,97264.34
2023-01-30T00:37:40.988Z,97257.84
2023-01-30T00:40:07.818Z,97262.16
2023-01-30T00:42:52.956Z,97259.22
2023-01-30T00:45:38.213Z,97250.81
2023-01-30T00:48:04.753Z,97233.75
2023-01-30T00:50:42.376Z,97228.13
2023-01-30T00:53:13.685Z,97227.94
2023-01-30T00:55:40.791Z,97223.81
2023-01-30T00:58:07.410Z,97230.50
2023-01-30T01:00:33.867Z,97227.94
2023-01-30T01:03:00.666Z,97227.84
2023-01-30T01:05:27.921Z,97225.69
2023-01-30T01:07:55.038Z,97220.84
2023-01-30T01:10:21.895Z,97227.56
2023-01-30T01:12:50.420Z,97239.13
2023-01-30T01:15:17.103Z,97238.84
2023-01-30T01:17:43.996Z,97240.22
2023-01-30T01:20:10.827Z,97242.91
2023-01-30T01:22:37.219Z,97232.63
2023-01-30T01:25:04.425Z,97231.84
2023-01-30T01:27:30.974Z,97234.53
2023-01-30T01:29:57.299Z,97231.72
2023-01-30T01:32:23.799Z,97226.47
2023-01-30T01:34:50.132Z,97217.16
2023-01-30T01:37:16.475Z,97222.16
2023-01-30T01:40:01.654Z,97214.31
2023-01-30T01:42:31.906Z,97209.16
2023-01-30T01:45:13.455Z,97197.56
2023-01-30T01:47:49.495Z,97197.84
2023-01-30T01:50:21.083Z,97210.09
2023-01-30T01:52:52.469Z,97213.56
2023-01-30T01:55:21.237Z,97213.56
2023-01-30T01:57:53.588Z,97221.38
2023-01-30T02:00:21.445Z,97208.91
2023-01-30T02:03:01.344Z,97204.69
2023-01-30T02:05:33.973Z,97194.94
2023-01-30T02:08:06.156Z,97201.81
2023-01-30T02:10:54.436Z,97207.13
2023-01-30T02:13:21.051Z,97215.44
2023-01-30T02:15:47.538Z,97217.41
2023-01-30T02:18:15.208Z,97210.09
2023-01-30T02:21:27.382Z,97218.91
2023-01-30T02:24:32.203Z,97214.38
2023-01-30T02:27:07.746Z,97217.16
2023-01-30T02:29:53.050Z,97219.88
2023-01-30T02:32:38.313Z,97222.03
2023-01-30T02:35:17.727Z,97233.97
2023-01-30T02:37:44.183Z,97249.06
2023-01-30T02:40:25.860Z,97265.06
2023-01-30T02:43:18.752Z,97263.38
2023-01-30T02:45:54.515Z,97250.69
2023-01-30T02:48:30.845Z,97264.97
2023-01-30T02:51:01.128Z,97287.06
2023-01-30T02:53:32.846Z,97302.31
2023-01-30T02:55:59.461Z,97281.72
2023-01-30T02:58:31.155Z,97279.84
2023-01-30T03:01:26.917Z,97284.13
2023-01-30T03:04:11.242Z,97292.19
2023-01-30T03:07:32.773Z,97295.66
2023-01-30T03:10:37.751Z,97297.59
2023-01-30T03:13:19.455Z,97310.41
2023-01-30T03:16:02.876Z,97321.09
2023-01-30T03:18:29.638Z,97321.09
2023-01-30T03:20:56.868Z,97322.94
2023-01-30T03:23:23.212Z,97311.59
2023-01-30T03:25:49.913Z,97320.16
2023-01-30T03:28:19.450Z,97297.78
2023-01-30T03:30:45.831Z,97294.88
2023-01-30T03:33:12.203Z,97277.47
2023-01-30T03:35:39.044Z,97266.53
2023-01-30T03:38:05.419Z,97277.47
2023-01-30T03:40:32.119Z,97297.16
2023-01-30T03:42:58.653Z,97298.91
2023-01-30T03:45:25.016Z,97292.34
2023-01-30T03:47:51.879Z,97301.38
2023-01-30T03:50:18.212Z,97295.38
2023-01-30T03:52:44.525Z,97306.16
2023-01-30T03:55:11.257Z,97332.00
2023-01-30T03:57:37.823Z,97334.72
2023-01-30T04:00:04.763Z,97326.81
2023-01-30T04:02:31.149Z,97317.72
2023-01-30T04:04:57.491Z,97283.97
2023-01-30T04:07:24.135Z,97277.03
2023-01-30T04:09:50.509Z,97321.72
2023-01-30T04:12:16.847Z,97325.84
2023-01-30T04:14:43.169Z,97315.31
2023-01-30T04:17:09.479Z,97316.09
2023-01-30T04:19:35.801Z,97305.06
2023-01-30T04:22:02.137Z,97319.31
2023-01-30T04:24:28.500Z,97323.41
2023-01-30T04:26:54.881Z,97328.81
2023-01-30T04:29:21.192Z,97319.97
2023-01-30T04:31:47.498Z,97305.41
2023-01-30T04:34:14.001Z,97299.66
2023-01-30T04:36:40.347Z,97294.34
2023-01-30T04:39:06.701Z,97279.56
2023-01-30T04:41:33.032Z,97262.75
2023-01-30T04:43:59.343Z,97237.66
2023-01-30T04:46:25.695Z,97238.84
2023-01-30T04:48:52.158Z,97236.06
2023-01-30T04:51:18.476Z,97244.81
2023-01-30T04:53:44.865Z,97245.16
2023-01-30T04:56:11.424Z,97242.59
2023-01-30T04:58:37.767Z,97241.81
2023-01-30T05:01:22.809Z,97247.38
2023-01-30T05:03:51.046Z,97251.91
2023-01-30T05:06:17.408Z,97277.91
2023-01-30T05:08:46.590Z,97271.78
2023-01-30T05:11:13.163Z,97267.28
2023-01-30T05:13:39.495Z,97255.31
2023-01-30T05:16:06.327Z,97242.22
2023-01-30T05:18:33.925Z,97245.91
2023-01-30T05:21:08.505Z,97233.84
2023-01-30T05:23:35.370Z,97250.13
2023-01-30T05:26:02.275Z,97238.13
2023-01-30T05:28:29.303Z,97228.06
2023-01-30T05:31:02.182Z,97244.16
2023-01-30T05:33:28.936Z,97234.88
2023-01-30T05:35:55.294Z,97237.94
2023-01-30T05:38:23.005Z,97221.59
2023-01-30T05:40:59.338Z,97225.34
2023-01-30T05:43:25.954Z,97219.41
2023-01-30T05:45:56.355Z,97233.09
2023-01-30T05:48:23.767Z,97218.91
2023-01-30T05:50:51.860Z,97231.75
2023-01-30T05:53:22.021Z,97245.50
2023-01-30T05:56:15.243Z,97244.88
2023-01-30T05:58:41.957Z,97229.25
2023-01-30T06:01:11.764Z,97237.47
2023-01-30T06:03:38.955Z,97231.81
2023-01-30T06:06:06.115Z,97252.72
2023-01-30T06:08:33.191Z,97239.09
2023-01-30T06:11:13.865Z,97248.50
2023-01-30T06:13:40.328Z,97232.38
2023-01-30T06:16:08.293Z,97226.94
2023-01-30T06:18:35.789Z,97215.84
2023-01-30T06:21:02.175Z,97213.56
2023-01-30T06:23:28.591Z,97198.19
2023-01-30T06:25:55.631Z,97211.13
2023-01-30T06:28:23.092Z,97211.38
2023-01-30T06:30:49.881Z,97210.63
2023-01-30T06:33:16.561Z,97212.28
2023-01-30T06:35:44.077Z,97220.84
2023-01-30T06:38:11.621Z,97229.34
2023-01-30T06:40:38.499Z,97232.72
2023-01-30T06:43:05.076Z,97234.19
2023-01-30T06:45:31.517Z,97237.41
2023-01-30T06:47:57.966Z,97243.75
2023-01-30T06:50:26.658Z,97266.38
2023-01-30T06:52:54.131Z,97270.66
2023-01-30T06:55:22.771Z,97277.72
2023-01-30T06:57:49.788Z,97287.06
2023-01-30T07:00:18.913Z,97289.72
2023-01-30T07:02:46.534Z,97289.56
2023-01-30T07:05:12.915Z,97293.41
2023-01-30T07:07:39.554Z,97291.09
2023-01-30T07:10:09.207Z,97290.94
2023-01-30T07:12:36.221Z,97297.16
2023-01-30T07:15:03.844Z,97303.19
2023-01-30T07:17:30.364Z,97303.06
2023-01-30T07:19:56.897Z,97303.25
2023-01-30T07:22:23.391Z,97308.50
2023-01-30T07:24:49.785Z,97309.75
2023-01-30T07:27:16.928Z,97312.59
2023-01-30T07:29:43.359Z,97307.78
2023-01-30T07:32:15.610Z,97320.50
2023-01-30T07:34:42.149Z,97306.34
2023-01-30T07:37:08.564Z,97314.44
2023-01-30T07:39:35.313Z,97317.16
2023-01-30T07:42:02.531Z,97314.94
2023-01-30T07:44:28.881Z,97310.84
2023-01-30T07:46:55.290Z,97306.47
2023-01-30T07:49:21.644Z,97292.63
2023-01-30T07:51:48.059Z,97288.56
2023-01-30T07:54:14.456Z,97281.53
2023-01-30T07:56:40.809Z,97249.19
2023-01-30T07:59:07.204Z,97264.03
2023-01-30T08:01:33.527Z,97279.34
2023-01-30T08:03:59.848Z,97278.97
2023-01-30T08:06:26.239Z,97278.22
2023-01-30T08:08:52.582Z,97279.72
2023-01-30T08:11:18.913Z,97288.09
2023-01-30T08:13:45.331Z,97295.38
2023-01-30T08:16:11.741Z,97303.44
2023-01-30T08:18:38.260Z,97305.00
2023-01-30T08:21:07.143Z,97312.97
2023-01-30T08:23:34.549Z,97317.91
2023-01-30T08:26:03.190Z,97330.25
2023-01-30T08:28:30.868Z,97334.78
2023-01-30T08:30:57.661Z,97336.06
2023-01-30T08:33:24.964Z,97334.78
2023-01-30T08:35:51.613Z,97337.09
2023-01-30T08:38:17.968Z,97339.44
2023-01-30T08:40:44.364Z,97339.38
2023-01-30T08:43:10.722Z,97338.34
2023-01-30T08:45:37.120Z,97345.19
2023-01-30T08:48:05.741Z,97348.63
2023-01-30T08:50:33.309Z,97349.06
2023-01-30T08:53:07.632Z,97346.88
2023-01-30T08:55:34.027Z,97345.81
2023-01-30T08:58:00.404Z,97336.94
2023-01-30T09:00:28.129Z,97325.31
2023-01-30T09:02:56.056Z,97320.25
2023-01-30T09:05:22.508Z,97330.56
2023-01-30T09:07:50.295Z,97344.03
2023-01-30T09:10:17.716Z,97334.00
2023-01-30T09:12:44.588Z,97351.97
2023-01-30T09:15:11.388Z,97356.94
2023-01-30T09:17:38.450Z,97333.53
2023-01-30T09:20:09.711Z,97344.00
2023-01-30T09:22:36.772Z,97344.81
2023-01-30T09:25:03.608Z,97355.16
2023-01-30T09:27:29.941Z,97365.16
2023-01-30T09:29:56.344Z,97377.69
2023-01-30T09:32:23.556Z,97378.53
2023-01-30T09:34:49.915Z,97393.44
2023-01-30T09:37:16.263Z,97387.38
2023-01-30T09:39:42.599Z,97377.78
2023-01-30T09:42:32.794Z,97377.63
2023-01-30T09:45:25.239Z,97373.38
2023-01-30T09:48:33.780Z,97376.16
2023-01-30T09:51:26.865Z,97360.09
2023-01-30T09:54:08.435Z,97374.03
2023-01-30T09:56:34.972Z,97368.84
2023-01-30T09:59:03.448Z,97371.59
2023-01-30T10:01:40.675Z,97371.16
2023-01-30T10:04:29.482Z,97355.44
2023-01-30T10:06:59.688Z,97363.59
2023-01-30T10:09:38.443Z,97370.53
2023-01-30T10:12:29.783Z,97372.84
2023-01-30T10:15:28.893Z,97362.50
2023-01-30T10:18:07.913Z,97349.66
2023-01-30T10:20:39.526Z,97349.34
2023-01-30T10:23:18.926Z,97355.78
2023-01-30T10:25:49.395Z,97350.56
2023-01-30T10:28:21.469Z,97348.84
2023-01-30T10:30:49.350Z,97352.06
2023-01-30T10:33:22.593Z,97352.31
2023-01-30T10:36:10.476Z,97362.47
2023-01-30T10:38:46.332Z,97354.03
2023-01-30T10:41:34.732Z,97351.50
2023-01-30T10:44:13.453Z,97341.38
2023-01-30T10:47:12.382Z,97336.94
2023-01-30T10:49:52.583Z,97315.09
2023-01-30T10:52:32.732Z,97296.41
2023-01-30T10:55:31.484Z,97274.13
2023-01-30T10:58:23.679Z,97274.00
2023-01-30T11:01:01.170Z,97285.16
2023-01-30T11:03:49.242Z,97275.38
2023-01-30T11:06:19.415Z,97270.59
2023-01-30T11:08:46.101Z,97255.53
2023-01-30T11:11:27.074Z,97236.88
2023-01-30T11:14:08.150Z,97246.06
2023-01-30T11:16:43.498Z,97233.88
2023-01-30T11:19:20.852Z,97226.16
2023-01-30T11:21:54.423Z,97218.13
2023-01-30T11:24:29.196Z,97217.81
2023-01-30T11:27:08.925Z,97213.78
2023-01-30T11:29:39.220Z,97218.88
2023-01-30T11:32:13.013Z,97227.75
2023-01-30T11:34:43.033Z,97228.53
2023-01-30T11:37:27.428Z,97199.94
2023-01-30T11:39:54.313Z,97194.66
2023-01-30T11:42:29.483Z,97188.44
2023-01-30T11:45:15.538Z,97170.19
2023-01-30T11:48:05.001Z,97172.19
2023-01-30T11:50:44.546Z,97173.22
2023-01-30T11:53:23.792Z,97171.69
2023-01-30T11:56:02.869Z,97176.31
2023-01-30T11:58:33.944Z,97169.13
2023-01-30T12:01:02.049Z,97149.91
2023-01-30T12:03:29.956Z,97147.25
2023-01-30T12:05:58.698Z,97164.31
2023-01-30T12:08:41.054Z,97164.72
2023-01-30T12:11:28.864Z,97153.09
2023-01-30T12:14:04.997Z,97178.19
2023-01-30T12:16:44.319Z,97161.66
2023-01-30T12:19:33.903Z,97139.56
2023-01-30T12:22:18.756Z,97132.03
2023-01-30T12:25:01.384Z,97123.84
2023-01-30T12:27:55.241Z,97135.72
2023-01-30T12:33:06.801Z,97137.69
2023-01-30T12:36:01.276Z,97136.34
2023-01-30T12:38:58.167Z,97109.63
2023-01-30T12:41:55.525Z,97110.41
2023-01-30T12:44:42.783Z,97116.03
2023-01-30T12:47:41.691Z,97129.59
2023-01-30T12:50:21.111Z,97116.97
2023-01-30T12:52:59.249Z,97129.28
2023-01-30T12:55:51.359Z,97141.56
2023-01-30T12:58:46.650Z,97147.44
2023-01-30T13:01:40.307Z,97134.41
2023-01-30T13:04:24.988Z,97120.31
2023-01-30T13:07:22.403Z,97118.09
2023-01-30T13:09:58.599Z,97129.59
2023-01-30T13:12:42.034Z,97110.84
2023-01-30T13:15:31.960Z,97113.22
2023-01-30T13:18:15.272Z,97110.88
2023-01-30T13:20:52.542Z,97094.44
2023-01-30T13:23:36.400Z,97106.91
2023-01-30T13:26:10.199Z,97099.84
2023-01-30T13:28:48.585Z,97104.50
2023-01-30T13:31:21.238Z,97107.31
2023-01-30T13:33:50.720Z,97101.91
2023-01-30T13:36:22.747Z,97118.03
2023-01-30T13:39:03.943Z,97112.31
2023-01-30T13:41:35.638Z,97102.19
2023-01-30T13:44:13.420Z,97102.88
2023-01-30T13:46:40.335Z,97109.19
2023-01-30T13:49:15.771Z,97095.47
2023-01-30T13:51:47.253Z,97092.78
2023-01-30T13:54:23.904Z,97092.50
2023-01-30T13:57:23.737Z,97108.47
2023-01-30T14:00:18.217Z,97109.88
2023-01-30T14:03:03.162Z,97106.97
2023-01-30T14:05:51.555Z,97100.34
2023-01-30T14:08:22.860Z,97106.59
2023-01-30T14:10:50.129Z,97105.38
2023-01-30T14:13:17.631Z,97102.00
2023-01-30T14:15:58.962Z,97107.50
2023-01-30T14:18:33.733Z,97101.47
2023-01-30T14:21:13.813Z,97103.63
2023-01-30T14:23:53.532Z,97110.69
2023-01-30T14:26:48.559Z,97109.78
2023-01-30T14:29:42.909Z,97113.50
2023-01-30T14:32:13.977Z,97109.44
2023-01-30T14:35:09.895Z,97114.06
2023-01-30T14:37:39.078Z,97105.38
2023-01-30T14:40:20.751Z,97105.38
2023-01-30T14:43:12.258Z,97110.41
2023-01-30T14:45:47.969Z,97112.25
2023-01-30T14:48:32.075Z,97114.59
2023-01-30T14:51:36.891Z,97120.00
2023-01-30T14:54:10.027Z,97130.66
2023-01-30T14:56:54.611Z,97132.75
2023-01-30T14:59:26.335Z,97127.56
2023-01-30T15:02:11.985Z,97131.63
2023-01-30T15:04:56.016Z,97140.41
2023-01-30T15:07:27.401Z,97147.66
2023-01-30T15:10:32.589Z,97152.91
2023-01-30T15:13:21.491Z,97147.59
2023-01-30T15:16:19.863Z,97156.41
2023-01-30T15:19:14.517Z,97166.75
2023-01-30T15:22:02.948Z,97170.84
2023-01-30T15:24:47.985Z,97177.13
2023-01-30T15:27:31.484Z,97175.44
2023-01-30T15:30:20.929Z,97188.06
2023-01-30T15:32:47.550Z,97185.69
2023-01-30T15:35:17.105Z,97198.41
2023-01-30T15:37:46.405Z,97196.47
2023-01-30T15:40:16.036Z,97203.00
2023-01-30T15:43:00.664Z,97201.75
2023-01-30T15:46:11.262Z,97208.34
2023-01-30T15:49:16.553Z,97207.38
2023-01-30T15:51:43.088Z,97200.66
2023-01-30T15:54:14.568Z,97204.03
2023-01-30T15:56:41.116Z,97209.03
2023-01-30T15:59:08.404Z,97208.28
2023-01-30T16:01:34.788Z,97208.50
2023-01-30T16:04:04.856Z,97228.44
2023-01-30T16:06:34.544Z,97230.59
2023-01-30T16:09:19.739Z,97241.78
2023-01-30T16:11:46.251Z,97250.41
2023-01-30T16:14:15.053Z,97242.50
2023-01-30T16:16:47.090Z,97243.75
2023-01-30T16:19:21.223Z,97266.38
2023-01-30T16:21:48.203Z,97271.22
2023-01-30T16:24:24.663Z,97275.19
2023-01-30T16:27:00.745Z,97280.50
2023-01-30T16:29:30.006Z,97283.09
2023-01-30T16:31:57.252Z,97283.88
2023-01-30T16:34:38.311Z,97296.41
2023-01-30T16:37:07.563Z,97297.63
2023-01-30T16:39:36.281Z,97299.38
2023-01-30T16:42:19.919Z,97312.31
2023-01-30T16:44:46.285Z,97325.16
2023-01-30T16:47:25.092Z,97322.13
2023-01-30T16:49:53.284Z,97321.22
2023-01-30T16:52:26.107Z,97319.09
2023-01-30T16:54:55.934Z,97327.25
2023-01-30T16:57:36.312Z,97322.91
2023-01-30T17:00:21.268Z,97327.16
2023-01-30T17:02:53.335Z,97331.38
2023-01-30T17:05:22.779Z,97335.31
2023-01-30T17:07:50.463Z,97339.72
2023-01-30T17:10:41.656Z,97339.88
2023-01-30T17:13:30.457Z,97340.03
2023-01-30T17:16:25.957Z,97344.91
2023-01-30T17:18:55.205Z,97353.63
2023-01-30T17:21:23.656Z,97352.50
2023-01-30T17:23:55.148Z,97362.63
2023-01-30T17:26:21.604Z,97367.41
2023-01-30T17:28:48.000Z,97375.28
2023-01-30T17:31:15.711Z,97374.94
2023-01-30T17:33:42.659Z,97377.22
2023-01-30T17:36:25.866Z,97376.13
2023-01-30T17:38:52.429Z,97386.22
2023-01-30T17:41:21.281Z,97381.69
2023-01-30T17:43:49.736Z,97386.84
2023-01-30T17:46:17.216Z,97385.81
2023-01-30T17:48:44.397Z,97392.97
2023-01-30T17:51:13.983Z,97393.09
2023-01-30T17:53:41.688Z,97382.81
2023-01-30T17:56:17.319Z,97390.97
2023-01-30T17:58:43.647Z,97386.63
2023-01-30T18:01:11.915Z,97389.06
2023-01-30T18:03:38.238Z,97398.25
2023-01-30T18:06:04.727Z,97400.09
2023-01-30T18:08:31.056Z,97403.06
2023-01-30T18:10:57.463Z,97417.13
2023-01-30T18:13:23.801Z,97404.81
2023-01-30T18:15:52.357Z,97423.16
2023-01-30T18:18:19.008Z,97416.63
2023-01-30T18:20:46.849Z,97419.44
2023-01-30T18:23:13.811Z,97418.16
2023-01-30T18:25:40.145Z,97419.78
2023-01-30T18:28:09.917Z,97423.22
2023-01-30T18:30:36.335Z,97413.41
2023-01-30T18:33:02.681Z,97412.13
2023-01-30T18:35:29.096Z,97412.88
2023-01-30T18:37:59.387Z,97414.84
2023-01-30T18:40:28.671Z,97413.94
2023-01-30T18:42:54.990Z,97411.66
2023-01-30T18:45:21.336Z,97410.94
2023-01-30T18:47:47.836Z,97412.88
2023-01-30T18:50:14.219Z,97426.72
2023-01-30T18:52:40.548Z,97425.75
2023-01-30T18:55:07.181Z,97426.53
2023-01-30T18:57:33.515Z,97416.91
2023-01-30T18:59:59.848Z,97411.97
2023-01-30T19:02:26.203Z,97418.13
2023-01-30T19:04:52.582Z,97415.72
2023-01-30T19:07:18.998Z,97415.59
2023-01-30T19:09:45.402Z,97412.88
2023-01-30T19:12:30.604Z,97417.81
2023-01-30T19:14:56.943Z,97411.31
2023-01-30T19:17:23.319Z,97415.44
2023-01-30T19:19:49.860Z,97410.31
2023-01-30T19:22:17.970Z,97416.81
2023-01-30T19:24:44.560Z,97419.50
2023-01-30T19:27:13.692Z,97425.63
2023-01-30T19:29:41.393Z,97427.06
2023-01-30T19:32:07.719Z,97430.59
2023-01-30T19:34:34.079Z,97427.53
2023-01-30T19:37:01.102Z,97428.34
2023-01-30T19:39:27.438Z,97429.78
2023-01-30T19:41:53.780Z,97427.38
2023-01-30T19:44:20.162Z,97430.06
2023-01-30T19:46:46.643Z,97429.25
2023-01-30T19:49:13.036Z,97432.94
2023-01-30T19:51:40.517Z,97433.66
2023-01-30T19:54:09.439Z,97432.94
2023-01-30T19:56:37.484Z,97446.53
2023-01-30T19:59:04.490Z,97442.78
2023-01-30T20:01:35.257Z,97454.94
2023-01-30T20:04:02.389Z,97460.13
2023-01-30T20:06:31.700Z,97468.28
2023-01-30T20:09:00.891Z,97458.81
2023-01-30T20:11:27.795Z,97459.44
2023-01-30T20:13:54.763Z,97460.81
2023-01-30T20:16:25.274Z,97459.72
2023-01-30T20:18:59.739Z,97457.00
2023-01-30T20:21:27.225Z,97460.50
2023-01-30T20:23:54.848Z,97455.66
2023-01-30T20:26:24.421Z,97451.63
2023-01-30T20:28:51.207Z,97457.63
2023-01-30T20:31:20.567Z,97465.94
2023-01-30T20:33:47.484Z,97457.53
2023-01-30T20:36:17.568Z,97475.06
2023-01-30T20:38:45.366Z,97480.28
2023-01-30T20:41:14.809Z,97483.88
2023-01-30T20:43:46.569Z,97483.53
2023-01-30T20:46:18.589Z,97480.84
2023-01-30T20:48:45.517Z,97482.50
2023-01-30T20:51:18.037Z,97478.34
2023-01-30T20:53:50.135Z,97480.94
2023-01-30T20:56:16.757Z,97478.28
2023-01-30T20:58:43.271Z,97478.28
2023-01-30T21:01:12.386Z,97478.41
2023-01-30T21:03:39.563Z,97487.78
2023-01-30T21:06:06.005Z,97498.38
2023-01-30T21:08:32.551Z,97501.69
2023-01-30T21:11:14.641Z,97500.50
2023-01-30T21:13:41.687Z,97496.38
2023-01-30T21:16:20.941Z,97502.78
2023-01-30T21:18:49.908Z,97502.91
2023-01-30T21:21:19.936Z,97500.28
2023-01-30T21:23:47.505Z,97497.38
2023-01-30T21:26:15.698Z,97507.50
2023-01-30T21:28:42.898Z,97512.22
2023-01-30T21:31:12.903Z,97517.09
2023-01-30T21:33:40.211Z,97512.69
2023-01-30T21:36:07.335Z,97515.56
2023-01-30T21:38:52.916Z,97521.81
2023-01-30T21:41:40.322Z,97521.06
2023-01-30T21:44:06.914Z,97524.91
2023-01-30T21:46:51.755Z,97522.41
2023-01-30T21:49:19.082Z,97530.38
2023-01-30T21:51:47.434Z,97530.88
2023-01-30T21:54:15.429Z,97541.56
2023-01-30T21:56:42.288Z,97538.19
2023-01-30T21:59:08.671Z,97540.06
2023-01-30T22:01:36.669Z,97549.19
2023-01-30T22:04:05.499Z,97553.84
2023-01-30T22:06:32.807Z,97561.53
2023-01-30T22:09:01.201Z,97564.34
2023-01-30T22:11:28.692Z,97561.50
2023-01-30T22:13:55.840Z,97563.03
2023-01-30T22:16:27.402Z,97565.50
2023-01-30T22:18:56.522Z,97561.03
2023-01-30T22:21:24.991Z,97553.06
2023-01-30T22:23:52.939Z,97559.13
2023-01-30T22:26:21.584Z,97563.09
2023-01-30T22:28:48.045Z,97560.25
2023-01-30T22:31:17.580Z,97560.75
2023-01-30T22:33:45.916Z,97552.84
2023-01-30T22:36:13.073Z,97557.38
2023-01-30T22:38:47.599Z,97564.69
2023-01-30T22:41:18.256Z,97562.13
2023-01-30T22:43:58.489Z,97561.00
2023-01-30T22:46:33.482Z,97563.75
2023-01-30T22:49:01.683Z,97559.53
2023-01-30T22:51:30.469Z,97558.63
2023-01-30T22:54:02.176Z,97561.44
2023-01-30T22:56:31.485Z,97563.03
2023-01-30T22:58:57.826Z,97558.72
2023-01-30T23:01:26.595Z,97552.88
2023-01-30T23:03:57.319Z,97555.50
2023-01-30T23:06:24.444Z,97550.69
2023-01-30T23:08:52.515Z,97542.22
2023-01-30T23:11:40.563Z,97546.97
2023-01-30T23:14:13.367Z,97560.13
2023-01-30T23:16:43.349Z,97555.13
2023-01-30T23:19:11.647Z,97545.97
2023-01-30T23:21:43.503Z,97542.56
2023-01-30T23:24:15.764Z,97541.59
2023-01-30T23:26:46.399Z,97536.75
2023-01-30T23:29:15.041Z,97539.81
2023-01-30T23:31:42.824Z,97538.66
2023-01-30T23:34:18.280Z,97544.59
2023-01-30T23:36:45.782Z,97548.50
2023-01-30T23:39:13.405Z,97550.97
2023-01-30T23:41:41.777Z,97541.09
2023-01-30T23:44:08.247Z,97541.09
2023-01-30T23:46:37.688Z,97542.31
2023-01-30T23:49:09.536Z,97532.81
2023-01-30T23:51:38.697Z,97536.25
2023-01-30T23:54:05.747Z,97531.72
2023-01-30T23:56:36.201Z,97527.13
2023-01-30T23:59:03.359Z,97528.59
